sensor_id;sensor_type;location;lat;lon;timestamp;P1;durP1;ratioP1;P2;durP2;ratioP2
9848;SDS011;4963;51.444;6.528;2023-04-25T00:01:52;13.10;;;5.20;;
9848;SDS011;4963;51.444;6.528;2023-04-25T00:04:19;10.40;;;4.70;;
9848;SDS011;4963;51.444;6.528;2023-04-25T00:06:46;9.57;;;4.63;;
9848;SDS011;4963;51.444;6.528;2023-04-25T00:09:14;10.80;;;4.43;;
9848;SDS011;4963;51.444;6.528;2023-04-25T00:11:41;10.47;;;4.43;;
9848;SDS011;4963;51.444;6.528;2023-04-25T00:14:08;11.23;;;4.90;;
9848;SDS011;4963;51.444;6.528;2023-04-25T00:16:35;11.83;;;4.87;;
9848;SDS011;4963;51.444;6.528;2023-04-25T00:19:02;11.10;;;4.27;;
9848;SDS011;4963;51.444;6.528;2023-04-25T00:21:29;12.97;;;4.87;;
9848;SDS011;4963;51.444;6.528;2023-04-25T00:23:57;13.80;;;4.90;;
9848;SDS011;4963;51.444;6.528;2023-04-25T00:26:25;11.50;;;4.60;;
9848;SDS011;4963;51.444;6.528;2023-04-25T00:28:53;12.37;;;4.43;;
9848;SDS011;4963;51.444;6.528;2023-04-25T00:31:19;14.83;;;6.03;;
9848;SDS011;4963;51.444;6.528;2023-04-25T00:33:46;16.20;;;4.90;;
9848;SDS011;4963;51.444;6.528;2023-04-25T00:36:13;9.47;;;4.93;;
9848;SDS011;4963;51.444;6.528;2023-04-25T00:38:40;9.40;;;4.73;;
9848;SDS011;4963;51.444;6.528;2023-04-25T00:41:07;10.67;;;5.43;;
9848;SDS011;4963;51.444;6.528;2023-04-25T00:43:35;12.53;;;4.70;;
9848;SDS011;4963;51.444;6.528;2023-04-25T00:46:03;9.67;;;5.30;;
9848;SDS011;4963;51.444;6.528;2023-04-25T00:48:29;9.43;;;4.67;;
9848;SDS011;4963;51.444;6.528;2023-04-25T00:50:57;11.03;;;4.63;;
9848;SDS011;4963;51.444;6.528;2023-04-25T00:53:25;10.60;;;4.73;;
9848;SDS011;4963;51.444;6.528;2023-04-25T00:55:53;14.37;;;5.77;;
9848;SDS011;4963;51.444;6.528;2023-04-25T00:58:20;10.20;;;4.83;;
9848;SDS011;4963;51.444;6.528;2023-04-25T01:00:50;9.67;;;4.37;;
9848;SDS011;4963;51.444;6.528;2023-04-25T01:03:18;9.90;;;4.60;;
9848;SDS011;4963;51.444;6.528;2023-04-25T01:05:45;8.67;;;4.97;;
9848;SDS011;4963;51.444;6.528;2023-04-25T01:08:13;9.53;;;4.40;;
9848;SDS011;4963;51.444;6.528;2023-04-25T01:10:40;7.03;;;4.37;;
9848;SDS011;4963;51.444;6.528;2023-04-25T01:13:07;12.80;;;5.40;;
9848;SDS011;4963;51.444;6.528;2023-04-25T01:15:34;12.10;;;5.40;;
9848;SDS011;4963;51.444;6.528;2023-04-25T01:18:03;13.07;;;4.93;;
9848;SDS011;4963;51.444;6.528;2023-04-25T01:20:30;9.83;;;4.60;;
9848;SDS011;4963;51.444;6.528;2023-04-25T01:23:00;9.43;;;4.53;;
9848;SDS011;4963;51.444;6.528;2023-04-25T01:25:28;13.13;;;4.53;;
9848;SDS011;4963;51.444;6.528;2023-04-25T01:27:55;10.93;;;4.73;;
9848;SDS011;4963;51.444;6.528;2023-04-25T01:30:22;11.33;;;5.33;;
9848;SDS011;4963;51.444;6.528;2023-04-25T01:32:50;9.63;;;5.17;;
9848;SDS011;4963;51.444;6.528;2023-04-25T01:35:17;13.03;;;5.07;;
9848;SDS011;4963;51.444;6.528;2023-04-25T01:37:44;10.27;;;4.60;;
9848;SDS011;4963;51.444;6.528;2023-04-25T01:40:12;10.87;;;5.03;;
9848;SDS011;4963;51.444;6.528;2023-04-25T01:42:40;9.83;;;4.83;;
9848;SDS011;4963;51.444;6.528;2023-04-25T01:45:09;11.90;;;4.50;;
9848;SDS011;4963;51.444;6.528;2023-04-25T01:47:37;6.50;;;3.67;;
9848;SDS011;4963;51.444;6.528;2023-04-25T01:50:05;10.20;;;4.30;;
9848;SDS011;4963;51.444;6.528;2023-04-25T01:52:33;6.77;;;4.40;;
9848;SDS011;4963;51.444;6.528;2023-04-25T01:55:00;9.33;;;4.20;;
9848;SDS011;4963;51.444;6.528;2023-04-25T01:57:29;7.23;;;3.87;;
9848;SDS011;4963;51.444;6.528;2023-04-25T01:59:57;8.07;;;4.33;;
9848;SDS011;4963;51.444;6.528;2023-04-25T02:02:26;9.03;;;4.00;;
9848;SDS011;4963;51.444;6.528;2023-04-25T02:04:53;9.17;;;4.13;;
9848;SDS011;4963;51.444;6.528;2023-04-25T02:07:21;10.07;;;3.97;;
9848;SDS011;4963;51.444;6.528;2023-04-25T02:09:48;8.53;;;3.50;;
9848;SDS011;4963;51.444;6.528;2023-04-25T02:12:15;11.13;;;4.40;;
9848;SDS011;4963;51.444;6.528;2023-04-25T02:14:43;11.57;;;3.87;;
9848;SDS011;4963;51.444;6.528;2023-04-25T02:17:09;10.03;;;3.83;;
9848;SDS011;4963;51.444;6.528;2023-04-25T02:19:37;8.87;;;3.93;;
9848;SDS011;4963;51.444;6.528;2023-04-25T02:22:04;10.70;;;3.90;;
9848;SDS011;4963;51.444;6.528;2023-04-25T02:24:31;7.77;;;4.13;;
9848;SDS011;4963;51.444;6.528;2023-04-25T02:26:58;12.47;;;4.13;;
9848;SDS011;4963;51.444;6.528;2023-04-25T02:29:25;10.70;;;4.07;;
9848;SDS011;4963;51.444;6.528;2023-04-25T02:31:53;10.57;;;4.17;;
9848;SDS011;4963;51.444;6.528;2023-04-25T02:34:20;11.47;;;4.47;;
9848;SDS011;4963;51.444;6.528;2023-04-25T02:36:47;8.70;;;4.10;;
9848;SDS011;4963;51.444;6.528;2023-04-25T02:39:15;8.60;;;3.90;;
9848;SDS011;4963;51.444;6.528;2023-04-25T02:41:42;10.83;;;3.70;;
9848;SDS011;4963;51.444;6.528;2023-04-25T02:44:10;10.30;;;4.03;;
9848;SDS011;4963;51.444;6.528;2023-04-25T02:46:36;9.87;;;4.20;;
9848;SDS011;4963;51.444;6.528;2023-04-25T02:49:04;9.27;;;3.90;;
9848;SDS011;4963;51.444;6.528;2023-04-25T02:51:31;8.47;;;4.23;;
9848;SDS011;4963;51.444;6.528;2023-04-25T02:53:58;9.60;;;4.10;;
9848;SDS011;4963;51.444;6.528;2023-04-25T02:56:25;14.13;;;4.80;;
9848;SDS011;4963;51.444;6.528;2023-04-25T02:58:52;12.53;;;4.23;;
9848;SDS011;4963;51.444;6.528;2023-04-25T03:01:19;9.70;;;4.20;;
9848;SDS011;4963;51.444;6.528;2023-04-25T03:03:46;10.90;;;4.47;;
9848;SDS011;4963;51.444;6.528;2023-04-25T03:06:14;9.33;;;4.63;;
9848;SDS011;4963;51.444;6.528;2023-04-25T03:08:41;12.60;;;3.97;;
9848;SDS011;4963;51.444;6.528;2023-04-25T03:11:08;12.93;;;4.10;;
9848;SDS011;4963;51.444;6.528;2023-04-25T03:13:35;8.70;;;4.10;;
9848;SDS011;4963;51.444;6.528;2023-04-25T03:16:02;10.77;;;4.20;;
9848;SDS011;4963;51.444;6.528;2023-04-25T03:18:29;9.67;;;4.37;;
9848;SDS011;4963;51.444;6.528;2023-04-25T03:20:55;11.33;;;4.10;;
9848;SDS011;4963;51.444;6.528;2023-04-25T03:23:24;12.27;;;4.60;;
9848;SDS011;4963;51.444;6.528;2023-04-25T03:25:51;11.73;;;4.00;;
9848;SDS011;4963;51.444;6.528;2023-04-25T03:28:17;14.80;;;4.77;;
9848;SDS011;4963;51.444;6.528;2023-04-25T03:30:45;12.23;;;4.43;;
9848;SDS011;4963;51.444;6.528;2023-04-25T03:33:11;12.47;;;4.10;;
9848;SDS011;4963;51.444;6.528;2023-04-25T03:35:38;10.27;;;4.67;;
9848;SDS011;4963;51.444;6.528;2023-04-25T03:38:05;11.37;;;4.27;;
9848;SDS011;4963;51.444;6.528;2023-04-25T03:40:33;12.37;;;4.23;;
9848;SDS011;4963;51.444;6.528;2023-04-25T03:43:00;12.03;;;4.80;;
9848;SDS011;4963;51.444;6.528;2023-04-25T03:45:26;11.70;;;4.57;;
9848;SDS011;4963;51.444;6.528;2023-04-25T03:47:53;11.37;;;4.70;;
9848;SDS011;4963;51.444;6.528;2023-04-25T03:50:20;12.40;;;4.50;;
9848;SDS011;4963;51.444;6.528;2023-04-25T03:52:47;12.47;;;4.33;;
9848;SDS011;4963;51.444;6.528;2023-04-25T03:55:13;8.23;;;3.97;;
9848;SDS011;4963;51.444;6.528;2023-04-25T03:57:41;11.83;;;4.53;;
9848;SDS011;4963;51.444;6.528;2023-04-25T04:00:10;13.63;;;4.90;;
9848;SDS011;4963;51.444;6.528;2023-04-25T04:02:38;11.80;;;4.40;;
9848;SDS011;4963;51.444;6.528;2023-04-25T04:05:04;11.53;;;4.50;;
9848;SDS011;4963;51.444;6.528;2023-04-25T04:07:32;14.27;;;4.23;;
9848;SDS011;4963;51.444;6.528;2023-04-25T04:10:01;12.23;;;4.90;;
9848;SDS011;4963;51.444;6.528;2023-04-25T04:12:30;12.60;;;4.70;;
9848;SDS011;4963;51.444;6.528;2023-04-25T04:14:58;10.03;;;4.80;;
9848;SDS011;4963;51.444;6.528;2023-04-25T04:17:25;10.77;;;4.40;;
9848;SDS011;4963;51.444;6.528;2023-04-25T04:19:52;14.00;;;4.83;;
9848;SDS011;4963;51.444;6.528;2023-04-25T04:22:18;9.43;;;4.30;;
9848;SDS011;4963;51.444;6.528;2023-04-25T04:24:45;10.37;;;4.40;;
9848;SDS011;4963;51.444;6.528;2023-04-25T04:27:12;9.10;;;4.43;;
9848;SDS011;4963;51.444;6.528;2023-04-25T04:29:40;11.17;;;3.80;;
9848;SDS011;4963;51.444;6.528;2023-04-25T04:32:08;15.83;;;4.97;;
9848;SDS011;4963;51.444;6.528;2023-04-25T04:34:34;10.50;;;4.47;;
9848;SDS011;4963;51.444;6.528;2023-04-25T04:37:02;10.43;;;4.43;;
9848;SDS011;4963;51.444;6.528;2023-04-25T04:39:30;12.37;;;4.87;;
9848;SDS011;4963;51.444;6.528;2023-04-25T04:41:56;15.17;;;4.37;;
9848;SDS011;4963;51.444;6.528;2023-04-25T04:44:24;11.00;;;4.33;;
9848;SDS011;4963;51.444;6.528;2023-04-25T04:46:51;9.27;;;4.27;;
9848;SDS011;4963;51.444;6.528;2023-04-25T04:49:19;11.40;;;4.30;;
9848;SDS011;4963;51.444;6.528;2023-04-25T04:51:47;11.00;;;4.40;;
9848;SDS011;4963;51.444;6.528;2023-04-25T04:54:14;12.90;;;4.87;;
9848;SDS011;4963;51.444;6.528;2023-04-25T04:56:41;14.27;;;5.10;;
9848;SDS011;4963;51.444;6.528;2023-04-25T04:59:08;13.73;;;4.70;;
9848;SDS011;4963;51.444;6.528;2023-04-25T05:01:35;9.27;;;4.40;;
9848;SDS011;4963;51.444;6.528;2023-04-25T05:04:02;13.20;;;4.90;;
9848;SDS011;4963;51.444;6.528;2023-04-25T05:06:31;11.77;;;4.80;;
9848;SDS011;4963;51.444;6.528;2023-04-25T05:08:58;7.80;;;4.30;;
9848;SDS011;4963;51.444;6.528;2023-04-25T05:11:25;10.47;;;4.23;;
9848;SDS011;4963;51.444;6.528;2023-04-25T05:13:52;11.70;;;4.50;;
9848;SDS011;4963;51.444;6.528;2023-04-25T05:16:19;8.57;;;4.47;;
9848;SDS011;4963;51.444;6.528;2023-04-25T05:18:46;12.50;;;4.40;;
9848;SDS011;4963;51.444;6.528;2023-04-25T05:21:13;9.47;;;4.37;;
9848;SDS011;4963;51.444;6.528;2023-04-25T05:23:41;10.07;;;4.07;;
9848;SDS011;4963;51.444;6.528;2023-04-25T05:26:08;13.13;;;4.93;;
9848;SDS011;4963;51.444;6.528;2023-04-25T05:28:38;12.57;;;4.80;;
9848;SDS011;4963;51.444;6.528;2023-04-25T05:31:05;12.47;;;4.30;;
9848;SDS011;4963;51.444;6.528;2023-04-25T05:33:32;11.17;;;5.23;;
9848;SDS011;4963;51.444;6.528;2023-04-25T05:35:59;13.63;;;4.70;;
9848;SDS011;4963;51.444;6.528;2023-04-25T05:38:26;10.80;;;4.37;;
9848;SDS011;4963;51.444;6.528;2023-04-25T05:40:54;11.53;;;4.60;;
9848;SDS011;4963;51.444;6.528;2023-04-25T05:43:21;10.90;;;4.53;;
9848;SDS011;4963;51.444;6.528;2023-04-25T05:45:48;8.43;;;3.77;;
9848;SDS011;4963;51.444;6.528;2023-04-25T05:48:15;11.33;;;4.53;;
9848;SDS011;4963;51.444;6.528;2023-04-25T05:50:42;11.60;;;4.40;;
9848;SDS011;4963;51.444;6.528;2023-04-25T05:53:08;11.80;;;4.43;;
9848;SDS011;4963;51.444;6.528;2023-04-25T05:55:35;11.83;;;4.90;;
9848;SDS011;4963;51.444;6.528;2023-04-25T05:58:04;11.20;;;3.97;;
9848;SDS011;4963;51.444;6.528;2023-04-25T06:00:31;18.47;;;4.50;;
9848;SDS011;4963;51.444;6.528;2023-04-25T06:02:58;9.33;;;4.37;;
9848;SDS011;4963;51.444;6.528;2023-04-25T06:05:25;18.57;;;5.00;;
9848;SDS011;4963;51.444;6.528;2023-04-25T06:07:52;9.63;;;4.17;;
9848;SDS011;4963;51.444;6.528;2023-04-25T06:10:19;14.37;;;4.93;;
9848;SDS011;4963;51.444;6.528;2023-04-25T06:12:47;15.20;;;4.57;;
9848;SDS011;4963;51.444;6.528;2023-04-25T06:15:15;9.97;;;4.10;;
9848;SDS011;4963;51.444;6.528;2023-04-25T06:17:42;14.37;;;4.57;;
9848;SDS011;4963;51.444;6.528;2023-04-25T06:20:09;13.00;;;4.13;;
9848;SDS011;4963;51.444;6.528;2023-04-25T06:22:36;14.73;;;3.97;;
9848;SDS011;4963;51.444;6.528;2023-04-25T06:25:03;12.57;;;3.80;;
9848;SDS011;4963;51.444;6.528;2023-04-25T06:27:32;9.87;;;4.03;;
9848;SDS011;4963;51.444;6.528;2023-04-25T06:29:58;12.80;;;3.90;;
9848;SDS011;4963;51.444;6.528;2023-04-25T06:32:27;15.03;;;3.97;;
9848;SDS011;4963;51.444;6.528;2023-04-25T06:34:54;17.13;;;3.73;;
9848;SDS011;4963;51.444;6.528;2023-04-25T06:37:21;9.53;;;3.70;;
9848;SDS011;4963;51.444;6.528;2023-04-25T06:39:48;10.70;;;3.47;;
9848;SDS011;4963;51.444;6.528;2023-04-25T06:42:15;12.70;;;4.03;;
9848;SDS011;4963;51.444;6.528;2023-04-25T06:44:42;9.97;;;3.87;;
9848;SDS011;4963;51.444;6.528;2023-04-25T06:47:08;12.73;;;3.63;;
9848;SDS011;4963;51.444;6.528;2023-04-25T06:49:37;8.20;;;2.87;;
9848;SDS011;4963;51.444;6.528;2023-04-25T06:52:03;10.20;;;3.53;;
9848;SDS011;4963;51.444;6.528;2023-04-25T06:54:30;11.60;;;3.30;;
9848;SDS011;4963;51.444;6.528;2023-04-25T06:56:57;11.13;;;4.17;;
9848;SDS011;4963;51.444;6.528;2023-04-25T06:59:25;12.23;;;4.33;;
9848;SDS011;4963;51.444;6.528;2023-04-25T07:01:52;12.60;;;3.97;;
9848;SDS011;4963;51.444;6.528;2023-04-25T07:04:19;14.50;;;4.90;;
9848;SDS011;4963;51.444;6.528;2023-04-25T07:06:47;10.47;;;3.40;;
9848;SDS011;4963;51.444;6.528;2023-04-25T07:09:14;12.50;;;3.40;;
9848;SDS011;4963;51.444;6.528;2023-04-25T07:11:41;8.47;;;3.50;;
9848;SDS011;4963;51.444;6.528;2023-04-25T07:14:08;9.60;;;2.90;;
9848;SDS011;4963;51.444;6.528;2023-04-25T07:16:35;6.53;;;2.90;;
9848;SDS011;4963;51.444;6.528;2023-04-25T07:19:01;9.87;;;3.60;;
9848;SDS011;4963;51.444;6.528;2023-04-25T07:21:28;10.10;;;3.87;;
9848;SDS011;4963;51.444;6.528;2023-04-25T07:23:57;8.27;;;3.50;;
9848;SDS011;4963;51.444;6.528;2023-04-25T07:26:24;6.17;;;2.90;;
9848;SDS011;4963;51.444;6.528;2023-04-25T07:28:51;9.47;;;3.30;;
9848;SDS011;4963;51.444;6.528;2023-04-25T07:31:18;11.70;;;3.50;;
9848;SDS011;4963;51.444;6.528;2023-04-25T07:33:44;7.90;;;3.03;;
9848;SDS011;4963;51.444;6.528;2023-04-25T07:36:11;7.80;;;3.10;;
9848;SDS011;4963;51.444;6.528;2023-04-25T07:38:40;8.90;;;3.30;;
9848;SDS011;4963;51.444;6.528;2023-04-25T07:41:08;7.90;;;3.17;;
9848;SDS011;4963;51.444;6.528;2023-04-25T07:43:35;7.77;;;3.67;;
9848;SDS011;4963;51.444;6.528;2023-04-25T07:46:01;6.83;;;3.10;;
9848;SDS011;4963;51.444;6.528;2023-04-25T07:48:28;9.40;;;3.60;;
9848;SDS011;4963;51.444;6.528;2023-04-25T07:50:55;9.13;;;2.87;;
9848;SDS011;4963;51.444;6.528;2023-04-25T07:53:22;6.50;;;2.77;;
9848;SDS011;4963;51.444;6.528;2023-04-25T07:55:49;9.43;;;3.13;;
9848;SDS011;4963;51.444;6.528;2023-04-25T07:58:18;9.93;;;2.90;;
9848;SDS011;4963;51.444;6.528;2023-04-25T08:00:46;9.20;;;3.20;;
9848;SDS011;4963;51.444;6.528;2023-04-25T08:03:13;8.37;;;2.87;;
9848;SDS011;4963;51.444;6.528;2023-04-25T08:05:40;7.57;;;2.60;;
9848;SDS011;4963;51.444;6.528;2023-04-25T08:08:07;8.37;;;2.70;;
9848;SDS011;4963;51.444;6.528;2023-04-25T08:10:34;9.47;;;2.73;;
9848;SDS011;4963;51.444;6.528;2023-04-25T08:13:00;11.60;;;3.07;;
9848;SDS011;4963;51.444;6.528;2023-04-25T08:15:29;8.73;;;2.60;;
9848;SDS011;4963;51.444;6.528;2023-04-25T08:17:56;10.97;;;3.07;;
9848;SDS011;4963;51.444;6.528;2023-04-25T08:20:23;8.63;;;2.80;;
9848;SDS011;4963;51.444;6.528;2023-04-25T08:22:50;7.27;;;2.77;;
9848;SDS011;4963;51.444;6.528;2023-04-25T08:25:16;10.50;;;2.70;;
9848;SDS011;4963;51.444;6.528;2023-04-25T08:27:43;7.10;;;2.50;;
9848;SDS011;4963;51.444;6.528;2023-04-25T08:30:10;14.10;;;2.80;;
9848;SDS011;4963;51.444;6.528;2023-04-25T08:32:38;6.23;;;2.70;;
9848;SDS011;4963;51.444;6.528;2023-04-25T08:35:05;9.30;;;2.83;;
9848;SDS011;4963;51.444;6.528;2023-04-25T08:37:33;5.50;;;2.53;;
9848;SDS011;4963;51.444;6.528;2023-04-25T08:39:59;8.03;;;2.70;;
9848;SDS011;4963;51.444;6.528;2023-04-25T08:42:27;7.27;;;3.07;;
9848;SDS011;4963;51.444;6.528;2023-04-25T08:44:56;6.70;;;2.33;;
9848;SDS011;4963;51.444;6.528;2023-04-25T08:47:24;7.80;;;2.27;;
9848;SDS011;4963;51.444;6.528;2023-04-25T08:49:55;8.10;;;2.70;;
9848;SDS011;4963;51.444;6.528;2023-04-25T08:52:23;4.07;;;2.00;;
9848;SDS011;4963;51.444;6.528;2023-04-25T08:54:50;3.60;;;1.80;;
9848;SDS011;4963;51.444;6.528;2023-04-25T08:57:19;5.47;;;2.17;;
9848;SDS011;4963;51.444;6.528;2023-04-25T08:59:47;6.23;;;2.20;;
9848;SDS011;4963;51.444;6.528;2023-04-25T09:02:14;8.97;;;2.47;;
9848;SDS011;4963;51.444;6.528;2023-04-25T09:04:43;4.70;;;1.80;;
9848;SDS011;4963;51.444;6.528;2023-04-25T09:07:11;6.07;;;2.33;;
9848;SDS011;4963;51.444;6.528;2023-04-25T09:09:40;6.60;;;2.20;;
9848;SDS011;4963;51.444;6.528;2023-04-25T09:12:07;5.53;;;2.13;;
9848;SDS011;4963;51.444;6.528;2023-04-25T09:14:35;5.67;;;2.20;;
9848;SDS011;4963;51.444;6.528;2023-04-25T09:17:02;6.30;;;1.87;;
9848;SDS011;4963;51.444;6.528;2023-04-25T09:19:31;8.73;;;1.90;;
9848;SDS011;4963;51.444;6.528;2023-04-25T09:22:00;5.67;;;1.87;;
9848;SDS011;4963;51.444;6.528;2023-04-25T09:24:34;6.00;;;2.30;;
9848;SDS011;4963;51.444;6.528;2023-04-25T09:27:05;6.03;;;2.27;;
9848;SDS011;4963;51.444;6.528;2023-04-25T09:29:33;7.13;;;2.00;;
9848;SDS011;4963;51.444;6.528;2023-04-25T09:32:15;6.80;;;2.33;;
9848;SDS011;4963;51.444;6.528;2023-04-25T09:34:46;9.80;;;2.53;;
9848;SDS011;4963;51.444;6.528;2023-04-25T09:37:17;7.50;;;2.37;;
9848;SDS011;4963;51.444;6.528;2023-04-25T09:39:46;7.90;;;2.00;;
9848;SDS011;4963;51.444;6.528;2023-04-25T09:42:14;6.13;;;2.20;;
9848;SDS011;4963;51.444;6.528;2023-04-25T09:44:42;4.37;;;1.90;;
9848;SDS011;4963;51.444;6.528;2023-04-25T09:47:10;7.97;;;2.03;;
9848;SDS011;4963;51.444;6.528;2023-04-25T09:49:38;6.37;;;2.00;;
9848;SDS011;4963;51.444;6.528;2023-04-25T09:52:07;7.53;;;1.90;;
9848;SDS011;4963;51.444;6.528;2023-04-25T09:54:34;10.33;;;2.27;;
9848;SDS011;4963;51.444;6.528;2023-04-25T09:57:04;5.77;;;1.97;;
9848;SDS011;4963;51.444;6.528;2023-04-25T09:59:41;6.37;;;2.13;;
9848;SDS011;4963;51.444;6.528;2023-04-25T10:02:10;8.57;;;2.30;;
9848;SDS011;4963;51.444;6.528;2023-04-25T10:04:38;6.20;;;2.17;;
9848;SDS011;4963;51.444;6.528;2023-04-25T10:07:07;8.00;;;2.27;;
9848;SDS011;4963;51.444;6.528;2023-04-25T10:09:36;6.87;;;1.97;;
9848;SDS011;4963;51.444;6.528;2023-04-25T10:12:06;6.97;;;2.07;;
9848;SDS011;4963;51.444;6.528;2023-04-25T10:14:33;6.73;;;2.37;;
9848;SDS011;4963;51.444;6.528;2023-04-25T10:17:01;8.33;;;2.30;;
9848;SDS011;4963;51.444;6.528;2023-04-25T10:19:27;7.30;;;2.20;;
9848;SDS011;4963;51.444;6.528;2023-04-25T10:21:56;4.73;;;2.00;;
9848;SDS011;4963;51.444;6.528;2023-04-25T10:24:29;7.13;;;2.37;;
9848;SDS011;4963;51.444;6.528;2023-04-25T10:26:56;5.57;;;2.03;;
9848;SDS011;4963;51.444;6.528;2023-04-25T10:29:25;7.77;;;2.10;;
9848;SDS011;4963;51.444;6.528;2023-04-25T10:31:52;6.43;;;2.20;;
9848;SDS011;4963;51.444;6.528;2023-04-25T10:34:19;8.03;;;2.13;;
9848;SDS011;4963;51.444;6.528;2023-04-25T10:36:50;5.30;;;2.10;;
9848;SDS011;4963;51.444;6.528;2023-04-25T10:39:21;7.70;;;2.27;;
9848;SDS011;4963;51.444;6.528;2023-04-25T10:41:52;7.00;;;2.40;;
9848;SDS011;4963;51.444;6.528;2023-04-25T10:44:22;4.57;;;2.07;;
9848;SDS011;4963;51.444;6.528;2023-04-25T10:46:50;6.80;;;2.10;;
9848;SDS011;4963;51.444;6.528;2023-04-25T10:49:29;5.93;;;2.27;;
9848;SDS011;4963;51.444;6.528;2023-04-25T10:54:46;6.93;;;2.23;;
9848;SDS011;4963;51.444;6.528;2023-04-25T10:57:26;6.30;;;2.37;;
9848;SDS011;4963;51.444;6.528;2023-04-25T11:00:07;6.30;;;2.37;;
9848;SDS011;4963;51.444;6.528;2023-04-25T11:02:43;7.03;;;2.57;;
9848;SDS011;4963;51.444;6.528;2023-04-25T11:05:16;9.27;;;2.83;;
9848;SDS011;4963;51.444;6.528;2023-04-25T11:07:49;5.73;;;2.67;;
9848;SDS011;4963;51.444;6.528;2023-04-25T11:10:17;7.47;;;2.30;;
9848;SDS011;4963;51.444;6.528;2023-04-25T11:12:45;5.93;;;2.40;;
9848;SDS011;4963;51.444;6.528;2023-04-25T11:15:12;6.90;;;2.27;;
9848;SDS011;4963;51.444;6.528;2023-04-25T11:17:39;7.37;;;2.03;;
9848;SDS011;4963;51.444;6.528;2023-04-25T11:20:08;7.77;;;2.30;;
9848;SDS011;4963;51.444;6.528;2023-04-25T11:22:37;5.20;;;2.07;;
9848;SDS011;4963;51.444;6.528;2023-04-25T11:25:06;11.50;;;2.57;;
9848;SDS011;4963;51.444;6.528;2023-04-25T11:27:34;5.83;;;1.80;;
9848;SDS011;4963;51.444;6.528;2023-04-25T11:30:13;4.83;;;1.73;;
9848;SDS011;4963;51.444;6.528;2023-04-25T11:32:41;5.73;;;1.83;;
9848;SDS011;4963;51.444;6.528;2023-04-25T11:35:09;10.17;;;2.53;;
9848;SDS011;4963;51.444;6.528;2023-04-25T11:37:37;4.63;;;1.90;;
9848;SDS011;4963;51.444;6.528;2023-04-25T11:40:05;4.30;;;1.60;;
9848;SDS011;4963;51.444;6.528;2023-04-25T11:42:35;6.17;;;2.23;;
9848;SDS011;4963;51.444;6.528;2023-04-25T11:45:03;5.87;;;2.00;;
9848;SDS011;4963;51.444;6.528;2023-04-25T11:47:30;6.20;;;1.90;;
9848;SDS011;4963;51.444;6.528;2023-04-25T11:49:58;6.70;;;2.60;;
9848;SDS011;4963;51.444;6.528;2023-04-25T11:52:36;5.73;;;2.03;;
9848;SDS011;4963;51.444;6.528;2023-04-25T11:55:04;8.43;;;2.27;;
9848;SDS011;4963;51.444;6.528;2023-04-25T11:57:32;7.37;;;2.20;;
9848;SDS011;4963;51.444;6.528;2023-04-25T12:00:04;7.13;;;2.13;;
9848;SDS011;4963;51.444;6.528;2023-04-25T12:02:36;9.57;;;2.40;;
9848;SDS011;4963;51.444;6.528;2023-04-25T12:05:05;4.23;;;1.90;;
9848;SDS011;4963;51.444;6.528;2023-04-25T12:07:33;7.07;;;2.20;;
9848;SDS011;4963;51.444;6.528;2023-04-25T12:10:05;9.73;;;2.07;;
9848;SDS011;4963;51.444;6.528;2023-04-25T12:12:33;5.73;;;2.00;;
9848;SDS011;4963;51.444;6.528;2023-04-25T12:15:11;4.93;;;1.93;;
9848;SDS011;4963;51.444;6.528;2023-04-25T12:17:40;4.87;;;1.80;;
9848;SDS011;4963;51.444;6.528;2023-04-25T12:20:09;4.23;;;1.97;;
9848;SDS011;4963;51.444;6.528;2023-04-25T12:22:39;5.43;;;2.27;;
9848;SDS011;4963;51.444;6.528;2023-04-25T12:25:10;5.67;;;2.40;;
9848;SDS011;4963;51.444;6.528;2023-04-25T12:27:38;6.90;;;2.10;;
9848;SDS011;4963;51.444;6.528;2023-04-25T12:30:07;3.43;;;1.80;;
9848;SDS011;4963;51.444;6.528;2023-04-25T12:32:35;9.43;;;2.60;;
9848;SDS011;4963;51.444;6.528;2023-04-25T12:35:02;6.90;;;2.30;;
9848;SDS011;4963;51.444;6.528;2023-04-25T12:37:30;3.37;;;1.67;;
9848;SDS011;4963;51.444;6.528;2023-04-25T12:39:57;6.23;;;2.30;;
9848;SDS011;4963;51.444;6.528;2023-04-25T12:42:25;11.77;;;2.30;;
9848;SDS011;4963;51.444;6.528;2023-04-25T12:44:51;8.97;;;2.13;;
9848;SDS011;4963;51.444;6.528;2023-04-25T12:47:18;7.17;;;2.30;;
9848;SDS011;4963;51.444;6.528;2023-04-25T12:49:45;3.20;;;1.63;;
9848;SDS011;4963;51.444;6.528;2023-04-25T12:52:12;5.93;;;2.20;;
9848;SDS011;4963;51.444;6.528;2023-04-25T12:54:38;6.13;;;2.07;;
9848;SDS011;4963;51.444;6.528;2023-04-25T12:57:05;6.60;;;1.93;;
9848;SDS011;4963;51.444;6.528;2023-04-25T12:59:33;3.90;;;1.50;;
9848;SDS011;4963;51.444;6.528;2023-04-25T13:02:00;3.83;;;1.60;;
9848;SDS011;4963;51.444;6.528;2023-04-25T13:04:27;4.07;;;1.70;;
9848;SDS011;4963;51.444;6.528;2023-04-25T13:06:54;3.67;;;1.77;;
9848;SDS011;4963;51.444;6.528;2023-04-25T13:09:21;4.60;;;1.80;;
9848;SDS011;4963;51.444;6.528;2023-04-25T13:11:48;2.50;;;1.53;;
9848;SDS011;4963;51.444;6.528;2023-04-25T13:14:15;2.83;;;1.20;;
9848;SDS011;4963;51.444;6.528;2023-04-25T13:16:43;4.40;;;1.50;;
9848;SDS011;4963;51.444;6.528;2023-04-25T13:19:10;4.47;;;1.50;;
9848;SDS011;4963;51.444;6.528;2023-04-25T13:21:37;3.83;;;1.40;;
9848;SDS011;4963;51.444;6.528;2023-04-25T13:24:04;2.87;;;1.50;;
9848;SDS011;4963;51.444;6.528;2023-04-25T13:26:31;7.83;;;2.00;;
9848;SDS011;4963;51.444;6.528;2023-04-25T13:28:58;4.00;;;1.57;;
9848;SDS011;4963;51.444;6.528;2023-04-25T13:31:27;5.00;;;1.70;;
9848;SDS011;4963;51.444;6.528;2023-04-25T13:33:56;4.70;;;1.57;;
9848;SDS011;4963;51.444;6.528;2023-04-25T13:36:23;5.03;;;1.87;;
9848;SDS011;4963;51.444;6.528;2023-04-25T13:38:50;4.80;;;1.63;;
9848;SDS011;4963;51.444;6.528;2023-04-25T13:41:17;4.20;;;1.63;;
9848;SDS011;4963;51.444;6.528;2023-04-25T13:43:45;3.67;;;1.60;;
9848;SDS011;4963;51.444;6.528;2023-04-25T13:46:12;4.67;;;1.77;;
9848;SDS011;4963;51.444;6.528;2023-04-25T13:48:40;8.67;;;2.00;;
9848;SDS011;4963;51.444;6.528;2023-04-25T13:51:12;5.80;;;1.90;;
9848;SDS011;4963;51.444;6.528;2023-04-25T13:53:40;3.73;;;1.50;;
9848;SDS011;4963;51.444;6.528;2023-04-25T13:56:07;5.30;;;1.63;;
9848;SDS011;4963;51.444;6.528;2023-04-25T13:58:34;2.60;;;1.57;;
9848;SDS011;4963;51.444;6.528;2023-04-25T14:01:01;5.90;;;1.77;;
9848;SDS011;4963;51.444;6.528;2023-04-25T14:03:28;4.70;;;1.70;;
9848;SDS011;4963;51.444;6.528;2023-04-25T14:05:55;3.57;;;1.90;;
9848;SDS011;4963;51.444;6.528;2023-04-25T14:08:23;4.93;;;1.70;;
9848;SDS011;4963;51.444;6.528;2023-04-25T14:10:50;2.93;;;1.33;;
9848;SDS011;4963;51.444;6.528;2023-04-25T14:13:16;4.43;;;1.70;;
9848;SDS011;4963;51.444;6.528;2023-04-25T14:15:43;4.97;;;1.80;;
9848;SDS011;4963;51.444;6.528;2023-04-25T14:18:10;5.00;;;1.50;;
9848;SDS011;4963;51.444;6.528;2023-04-25T14:20:37;4.53;;;1.43;;
9848;SDS011;4963;51.444;6.528;2023-04-25T14:23:03;4.07;;;1.53;;
9848;SDS011;4963;51.444;6.528;2023-04-25T14:25:32;3.70;;;1.43;;
9848;SDS011;4963;51.444;6.528;2023-04-25T14:28:00;2.27;;;1.50;;
9848;SDS011;4963;51.444;6.528;2023-04-25T14:30:27;5.23;;;1.57;;
9848;SDS011;4963;51.444;6.528;2023-04-25T14:32:54;4.93;;;1.87;;
9848;SDS011;4963;51.444;6.528;2023-04-25T14:35:21;6.10;;;1.73;;
9848;SDS011;4963;51.444;6.528;2023-04-25T14:37:47;4.93;;;1.67;;
9848;SDS011;4963;51.444;6.528;2023-04-25T14:40:14;4.53;;;1.90;;
9848;SDS011;4963;51.444;6.528;2023-04-25T14:42:43;4.67;;;1.93;;
9848;SDS011;4963;51.444;6.528;2023-04-25T14:45:10;5.77;;;1.70;;
9848;SDS011;4963;51.444;6.528;2023-04-25T14:47:37;7.70;;;1.67;;
9848;SDS011;4963;51.444;6.528;2023-04-25T14:50:05;6.20;;;1.80;;
9848;SDS011;4963;51.444;6.528;2023-04-25T14:52:33;6.93;;;2.03;;
9848;SDS011;4963;51.444;6.528;2023-04-25T14:55:00;3.60;;;1.63;;
9848;SDS011;4963;51.444;6.528;2023-04-25T14:57:29;3.83;;;1.60;;
9848;SDS011;4963;51.444;6.528;2023-04-25T14:59:58;3.03;;;1.60;;
9848;SDS011;4963;51.444;6.528;2023-04-25T15:02:25;4.47;;;2.00;;
9848;SDS011;4963;51.444;6.528;2023-04-25T15:04:52;4.97;;;1.97;;
9848;SDS011;4963;51.444;6.528;2023-04-25T15:07:19;5.63;;;1.67;;
9848;SDS011;4963;51.444;6.528;2023-04-25T15:09:46;3.53;;;1.60;;
9848;SDS011;4963;51.444;6.528;2023-04-25T15:12:13;5.43;;;2.17;;
9848;SDS011;4963;51.444;6.528;2023-04-25T15:14:40;6.57;;;1.87;;
9848;SDS011;4963;51.444;6.528;2023-04-25T15:17:09;4.33;;;1.70;;